createdAt,value
2022-08-08T00:00:53.598Z,1.00
2022-08-08T00:02:57.937Z,1.00
2022-08-08T00:06:02.686Z,1.00
2022-08-08T00:08:43.478Z,1.00
2022-08-08T00:12:08.151Z,1.00
2022-08-08T00:15:03.517Z,1.00
2022-08-08T00:18:03.130Z,1.00
2022-08-08T00:21:01.233Z,1.00
2022-08-08T00:23:56.041Z,1.00
2022-08-08T00:26:41.558Z,1.00
2022-08-08T00:29:44.244Z,1.00
2022-08-08T00:32:28.965Z,1.00
2022-08-08T00:35:40.780Z,1.00
2022-08-08T00:38:16.551Z,1.00
2022-08-08T00:41:55.019Z,1.00
2022-08-08T00:44:39.283Z,1.00
2022-08-08T00:47:37.068Z,8.30
2022-08-08T00:51:01.252Z,18.10
2022-08-08T00:53:57.147Z,26.50
2022-08-08T00:57:19.737Z,26.90
2022-08-08T01:00:19.352Z,30.90
2022-08-08T01:04:01.388Z,36.20
2022-08-08T01:06:40.254Z,43.00
2022-08-08T01:09:35.591Z,42.40
2022-08-08T01:12:42.032Z,41.60
2022-08-08T01:15:37.250Z,52.00
2022-08-08T01:18:52.884Z,54.30
2022-08-08T01:22:07.335Z,54.50
2022-08-08T01:24:53.888Z,48.50
2022-08-08T01:27:46.175Z,48.00
2022-08-08T01:30:26.178Z,68.50
2022-08-08T01:33:53.822Z,68.80
2022-08-08T01:36:36.065Z,66.60
2022-08-08T01:39:23.655Z,56.10
2022-08-08T01:42:15.601Z,53.30
2022-08-08T01:44:58.916Z,61.70
2022-08-08T01:48:14.380Z,60.80
2022-08-08T01:51:00.306Z,55.60
2022-08-08T01:55:26.545Z,59.00
2022-08-08T01:57:03.354Z,66.90
2022-08-08T02:00:01.776Z,83.50
2022-08-08T02:02:46.788Z,92.50
2022-08-08T02:05:56.521Z,99.90
2022-08-08T02:09:02.481Z,99.90
2022-08-08T02:11:59.307Z,99.90
2022-08-08T02:14:55.840Z,99.90
2022-08-08T02:17:53.961Z,99.90
2022-08-08T02:21:01.970Z,99.90
2022-08-08T02:24:09.071Z,99.90
2022-08-08T02:26:50.869Z,97.30
2022-08-08T02:29:46.749Z,97.10
2022-08-08T02:32:57.533Z,99.90
2022-08-08T02:36:04.978Z,99.90
2022-08-08T02:38:54.975Z,99.90
2022-08-08T02:42:04.693Z,99.90
2022-08-08T02:44:59.176Z,99.90
2022-08-08T02:47:55.842Z,99.90
2022-08-08T02:50:55.551Z,99.90
2022-08-08T02:53:50.723Z,99.90
2022-08-08T02:57:05.065Z,99.90
2022-08-08T03:00:26.580Z,99.90
2022-08-08T03:05:00.554Z,99.90
2022-08-08T03:06:43.615Z,99.90
2022-08-08T03:09:35.375Z,99.90
2022-08-08T03:12:14.417Z,99.90
2022-08-08T03:15:56.484Z,99.90
2022-08-08T03:18:31.496Z,99.90
2022-08-08T03:21:01.039Z,99.90
2022-08-08T03:23:54.804Z,99.90
2022-08-08T03:26:26.419Z,99.90
2022-08-08T03:28:59.848Z,99.90
2022-08-08T03:31:54.710Z,99.90
2022-08-08T03:34:35.336Z,99.90
2022-08-08T03:38:00.031Z,99.90
2022-08-08T03:40:06.142Z,99.90
2022-08-08T03:42:47.559Z,99.90
2022-08-08T03:46:05.853Z,99.90
2022-08-08T03:48:21.327Z,99.90
2022-08-08T03:51:06.630Z,99.90
2022-08-08T03:53:42.538Z,99.90
2022-08-08T03:56:31.824Z,99.90
2022-08-08T03:59:00.686Z,99.90
2022-08-08T04:02:13.283Z,99.90
2022-08-08T04:04:30.855Z,99.90
2022-08-08T04:07:01.566Z,99.90
2022-08-08T04:09:58.797Z,99.90
2022-08-08T04:12:26.940Z,99.90
2022-08-08T04:14:54.343Z,99.90
2022-08-08T04:17:46.192Z,99.90
2022-08-08T04:20:09.789Z,99.90
2022-08-08T04:22:37.150Z,99.90
2022-08-08T04:25:07.869Z,99.90
2022-08-08T04:28:03.172Z,99.90
2022-08-08T04:30:24.034Z,99.90
2022-08-08T04:32:53.105Z,99.90
2022-08-08T04:35:23.187Z,99.90
2022-08-08T04:37:52.927Z,99.90
2022-08-08T04:40:23.782Z,99.90
2022-08-08T04:42:57.281Z,99.90
2022-08-08T04:45:34.743Z,99.90
2022-08-08T04:48:02.974Z,99.90
2022-08-08T04:50:38.538Z,99.90
2022-08-08T04:53:51.972Z,99.90
2022-08-08T04:55:56.961Z,99.90
2022-08-08T04:58:27.202Z,99.90
2022-08-08T05:00:54.649Z,99.90
2022-08-08T05:04:09.154Z,99.90
2022-08-08T05:06:13.422Z,99.90
2022-08-08T05:08:51.886Z,99.90
2022-08-08T05:11:24.265Z,99.90
2022-08-08T05:14:00.786Z,99.90
2022-08-08T05:16:50.967Z,99.90
2022-08-08T05:20:09.787Z,99.90
2022-08-08T05:22:08.689Z,99.90
2022-08-08T05:24:40.236Z,99.90
2022-08-08T05:27:07.738Z,99.90
2022-08-08T05:29:37.376Z,99.90
2022-08-08T05:32:09.177Z,99.90
2022-08-08T05:34:49.279Z,99.90
2022-08-08T05:37:39.160Z,99.90
2022-08-08T05:40:14.788Z,99.90
2022-08-08T05:42:49.206Z,99.90
2022-08-08T05:45:31.436Z,89.00
2022-08-08T05:48:08.893Z,81.70
2022-08-08T05:50:39.258Z,59.90
2022-08-08T05:53:54.472Z,46.90
2022-08-08T05:56:07.990Z,39.50
2022-08-08T05:58:53.844Z,14.50
2022-08-08T06:01:52.692Z,4.10
2022-08-08T06:04:23.536Z,1.00
2022-08-08T06:06:53.696Z,1.00
2022-08-08T06:09:58.725Z,1.00
2022-08-08T06:12:18.377Z,1.00
2022-08-08T06:14:48.870Z,1.00
2022-08-08T06:17:19.564Z,1.00
2022-08-08T06:19:55.687Z,1.00
2022-08-08T06:22:37.783Z,1.00
2022-08-08T06:25:15.689Z,1.00
2022-08-08T06:27:55.183Z,1.00
2022-08-08T06:30:26.371Z,1.00
2022-08-08T06:33:00.900Z,1.00
2022-08-08T06:36:08.946Z,1.00
2022-08-08T06:38:27.766Z,1.00
2022-08-08T06:41:04.298Z,1.00
2022-08-08T06:43:35.741Z,1.00
2022-08-08T06:46:08.910Z,1.00
2022-08-08T06:48:36.641Z,1.00
2022-08-08T06:51:08.486Z,1.00
2022-08-08T06:53:39.143Z,1.00
2022-08-08T06:56:11.715Z,1.00
2022-08-08T06:58:43.926Z,1.00
2022-08-08T07:02:16.602Z,1.00
2022-08-08T07:04:40.272Z,1.00
2022-08-08T07:07:18.726Z,1.00
2022-08-08T07:09:56.566Z,1.00
2022-08-08T07:12:41.102Z,1.00
2022-08-08T07:15:32.581Z,1.00
2022-08-08T07:18:36.576Z,1.00
2022-08-08T07:21:04.899Z,1.00
2022-08-08T07:23:57.527Z,1.00
2022-08-08T07:26:37.850Z,1.00
2022-08-08T07:29:08.142Z,1.00
2022-08-08T07:31:41.084Z,1.00
2022-08-08T07:34:10.602Z,1.00
2022-08-08T07:36:50.913Z,1.00
2022-08-08T07:39:29.880Z,1.00
2022-08-08T07:42:13.370Z,1.00
2022-08-08T07:44:48.179Z,1.00
2022-08-08T07:47:18.986Z,1.00
2022-08-08T07:50:06.661Z,1.00
2022-08-08T07:52:36.329Z,1.00
2022-08-08T07:55:19.077Z,1.00
2022-08-08T07:58:49.945Z,1.00
2022-08-08T08:02:33.118Z,1.00
2022-08-08T08:04:49.016Z,1.00
2022-08-08T08:07:18.223Z,1.00
2022-08-08T08:09:49.943Z,1.00
2022-08-08T08:12:35.766Z,1.00
2022-08-08T08:15:08.121Z,1.00
2022-08-08T08:17:48.933Z,1.00
2022-08-08T08:20:29.719Z,1.00
2022-08-08T08:22:59.172Z,1.00
2022-08-08T08:25:42.998Z,1.00
2022-08-08T08:28:11.685Z,1.00
2022-08-08T08:30:49.227Z,1.00
2022-08-08T08:33:17.497Z,1.00
2022-08-08T08:36:19.339Z,1.00
2022-08-08T08:38:35.668Z,1.00
2022-08-08T08:41:17.061Z,1.00
2022-08-08T08:43:47.865Z,1.00
2022-08-08T08:46:17.780Z,1.00
2022-08-08T08:48:49.447Z,1.00
2022-08-08T08:51:18.049Z,1.00
2022-08-08T08:53:58.909Z,1.00
2022-08-08T08:56:31.697Z,1.00
2022-08-08T08:59:17.236Z,1.00
2022-08-08T09:01:55.748Z,1.00
2022-08-08T09:04:38.778Z,1.00
2022-08-08T09:07:22.643Z,1.00
2022-08-08T09:09:55.284Z,1.00
2022-08-08T09:12:33.846Z,1.00
2022-08-08T09:15:02.393Z,1.00
2022-08-08T09:17:41.812Z,1.00
2022-08-08T09:21:57.973Z,1.00
2022-08-08T09:23:11.442Z,1.00
2022-08-08T09:26:00.682Z,1.00
2022-08-08T09:28:38.638Z,1.00
2022-08-08T09:31:42.128Z,1.00
2022-08-08T09:34:32.077Z,1.00
2022-08-08T09:37:57.336Z,1.00
2022-08-08T09:40:10.521Z,1.00
2022-08-08T09:42:51.574Z,1.00
2022-08-08T09:45:55.012Z,1.00
2022-08-08T09:48:27.938Z,1.00
2022-08-08T09:51:05.200Z,1.00
2022-08-08T09:54:03.383Z,1.00
2022-08-08T09:56:40.872Z,1.00
2022-08-08T09:59:42.825Z,1.00
2022-08-08T10:02:12.575Z,1.00
2022-08-08T10:04:41.868Z,1.00
2022-08-08T10:07:16.340Z,1.00
2022-08-08T10:10:00.728Z,1.00
2022-08-08T10:12:37.919Z,1.00
2022-08-08T10:15:20.243Z,1.00
2022-08-08T10:18:05.930Z,1.00
2022-08-08T10:20:57.545Z,1.00
2022-08-08T10:23:49.552Z,1.00
2022-08-08T10:26:30.738Z,1.00
2022-08-08T10:29:22.807Z,1.00
2022-08-08T10:32:15.694Z,1.00
2022-08-08T10:34:58.471Z,1.00
2022-08-08T10:37:34.437Z,1.00
2022-08-08T10:40:16.058Z,1.00
2022-08-08T10:42:44.884Z,1.00
2022-08-08T10:45:15.970Z,1.00
2022-08-08T10:47:48.658Z,1.00
2022-08-08T10:50:30.759Z,1.00
2022-08-08T10:53:07.540Z,1.00
2022-08-08T10:55:46.598Z,1.00
2022-08-08T10:58:15.848Z,1.00
2022-08-08T11:00:53.564Z,1.00
2022-08-08T11:04:00.469Z,1.00
2022-08-08T11:06:34.892Z,1.00
2022-08-08T11:09:15.173Z,1.00
2022-08-08T11:12:05.099Z,1.00
2022-08-08T11:14:33.866Z,1.00
2022-08-08T11:17:04.081Z,1.00
2022-08-08T11:19:33.525Z,1.00
2022-08-08T11:22:01.352Z,1.00
2022-08-08T11:24:35.665Z,1.00
2022-08-08T11:27:10.768Z,1.00
2022-08-08T11:29:58.302Z,1.00
2022-08-08T11:32:42.214Z,1.00
2022-08-08T11:35:27.265Z,1.00
2022-08-08T11:38:35.258Z,1.00
2022-08-08T11:40:52.617Z,1.00
2022-08-08T11:43:21.719Z,1.00
2022-08-08T11:46:14.305Z,1.00
2022-08-08T11:48:39.812Z,1.00
2022-08-08T11:51:38.859Z,1.00
2022-08-08T11:54:01.424Z,1.00
2022-08-08T11:56:42.284Z,1.00
2022-08-08T11:59:11.659Z,1.00
2022-08-08T12:01:39.307Z,1.00
2022-08-08T12:04:09.089Z,1.00
2022-08-08T12:06:35.819Z,1.00
2022-08-08T12:09:09.720Z,1.00
2022-08-08T12:11:44.208Z,1.00
2022-08-08T12:14:22.876Z,1.00
2022-08-08T12:16:53.069Z,1.00
2022-08-08T12:19:31.134Z,1.00
2022-08-08T12:22:09.228Z,1.00
2022-08-08T12:24:51.169Z,1.00
2022-08-08T12:27:20.381Z,1.00
2022-08-08T12:29:58.977Z,1.00
2022-08-08T12:32:25.847Z,1.00
2022-08-08T12:35:04.254Z,1.00
2022-08-08T12:37:41.406Z,1.00
2022-08-08T12:40:24.070Z,1.00
2022-08-08T12:42:52.694Z,1.00
2022-08-08T12:45:58.448Z,1.00
2022-08-08T12:48:37.333Z,1.00
2022-08-08T12:51:07.841Z,1.00
2022-08-08T12:53:54.595Z,1.00
2022-08-08T12:56:34.335Z,1.00
2022-08-08T12:59:01.489Z,1.00
2022-08-08T13:01:38.194Z,1.00
2022-08-08T13:04:18.480Z,1.00
2022-08-08T13:07:00.569Z,1.00
2022-08-08T13:09:43.165Z,1.00
2022-08-08T13:12:30.580Z,1.00
2022-08-08T13:14:59.805Z,1.00
2022-08-08T13:18:08.847Z,1.00
2022-08-08T13:20:17.418Z,1.00
2022-08-08T13:22:45.716Z,1.00
2022-08-08T13:25:16.888Z,1.00
2022-08-08T13:27:44.057Z,1.00
2022-08-08T13:30:16.046Z,1.00
2022-08-08T13:32:47.765Z,1.00
2022-08-08T13:35:25.094Z,1.00
2022-08-08T13:38:06.055Z,1.00
2022-08-08T13:40:35.147Z,1.00
2022-08-08T13:43:03.858Z,1.00
2022-08-08T13:45:31.346Z,1.00
2022-08-08T13:47:59.242Z,1.00
2022-08-08T13:50:34.686Z,1.00
2022-08-08T13:53:24.520Z,1.00
2022-08-08T13:56:05.166Z,1.00
2022-08-08T13:58:33.072Z,1.00
2022-08-08T14:01:13.532Z,1.00
2022-08-08T14:03:54.505Z,1.00
2022-08-08T14:06:34.364Z,1.00
2022-08-08T14:09:25.404Z,1.00
2022-08-08T14:11:50.423Z,1.00
2022-08-08T14:14:21.252Z,1.00
2022-08-08T14:16:52.404Z,1.00
2022-08-08T14:19:57.256Z,1.00
2022-08-08T14:22:25.352Z,1.00
2022-08-08T14:25:07.683Z,1.00
2022-08-08T14:27:41.202Z,1.00
2022-08-08T14:30:18.107Z,1.00
2022-08-08T14:32:53.753Z,1.00
2022-08-08T14:35:35.196Z,1.00
2022-08-08T14:38:33.453Z,1.00
2022-08-08T14:40:59.630Z,1.00
2022-08-08T14:44:02.002Z,1.00
2022-08-08T14:46:30.994Z,1.00
2022-08-08T14:49:09.541Z,1.00
2022-08-08T14:51:53.432Z,1.00
2022-08-08T14:54:28.891Z,1.00
2022-08-08T14:56:57.922Z,1.00
2022-08-08T14:59:44.589Z,1.00
2022-08-08T15:02:14.177Z,1.00
2022-08-08T15:04:42.688Z,1.00
2022-08-08T15:07:22.770Z,1.00
2022-08-08T15:09:51.891Z,1.00
2022-08-08T15:12:34.947Z,1.00
2022-08-08T15:15:01.783Z,1.00
2022-08-08T15:17:47.032Z,1.00
2022-08-08T15:20:16.612Z,1.00
2022-08-08T15:22:46.150Z,1.00
2022-08-08T15:25:18.028Z,1.00
2022-08-08T15:28:03.485Z,1.00
2022-08-08T15:30:43.428Z,1.00
2022-08-08T15:33:20.871Z,1.00
2022-08-08T15:35:59.441Z,1.00
2022-08-08T15:38:26.383Z,1.00
2022-08-08T15:40:53.092Z,1.00
2022-08-08T15:43:36.025Z,1.00
2022-08-08T15:46:03.872Z,1.00
2022-08-08T15:48:30.959Z,1.00
2022-08-08T15:51:06.352Z,1.00
2022-08-08T15:53:49.633Z,1.00
2022-08-08T15:56:19.848Z,1.00
2022-08-08T15:58:48.506Z,1.00
2022-08-08T16:01:16.273Z,1.00
2022-08-08T16:03:43.048Z,1.00
2022-08-08T16:06:13.583Z,1.00
2022-08-08T16:13:00.026Z,1.00
2022-08-08T16:13:10.009Z,1.00
2022-08-08T16:14:16.009Z,1.00
2022-08-08T16:16:59.121Z,1.00
2022-08-08T16:19:26.640Z,1.00
2022-08-08T16:21:54.108Z,1.00
2022-08-08T16:24:22.955Z,1.00
2022-08-08T16:26:50.849Z,1.00
2022-08-08T16:29:36.993Z,1.00
2022-08-08T16:32:13.634Z,1.00
2022-08-08T16:34:50.737Z,1.00
2022-08-08T16:37:17.558Z,1.00
2022-08-08T16:40:00.793Z,1.00
2022-08-08T16:42:29.862Z,1.00
2022-08-08T16:44:58.905Z,1.00
2022-08-08T16:47:41.444Z,1.00
2022-08-08T16:50:14.450Z,1.00
2022-08-08T16:55:02.812Z,1.00
2022-08-08T16:55:55.546Z,1.00
2022-08-08T16:58:26.336Z,1.00
2022-08-08T17:00:55.558Z,1.00
2022-08-08T17:04:00.875Z,1.00
2022-08-08T17:06:37.029Z,1.00
2022-08-08T17:08:58.952Z,1.00
2022-08-08T17:11:28.426Z,1.00
2022-08-08T17:14:18.071Z,1.00
2022-08-08T17:16:57.834Z,1.00
2022-08-08T17:19:27.258Z,1.00
2022-08-08T17:21:54.494Z,1.00
2022-08-08T17:24:27.815Z,1.00
2022-08-08T17:26:58.020Z,1.00
2022-08-08T17:29:26.493Z,1.00
2022-08-08T17:31:53.554Z,1.00
2022-08-08T17:34:49.088Z,1.00
2022-08-08T17:37:11.176Z,1.00
2022-08-08T17:40:03.534Z,1.00
2022-08-08T17:42:28.044Z,1.00
2022-08-08T17:44:57.519Z,1.00
2022-08-08T17:47:40.644Z,1.00
2022-08-08T17:50:09.682Z,1.00
2022-08-08T17:52:38.336Z,1.00
2022-08-08T17:56:05.149Z,1.00
2022-08-08T17:57:58.736Z,1.00
2022-08-08T18:00:30.284Z,1.00
2022-08-08T18:03:08.552Z,1.00
2022-08-08T18:05:44.006Z,1.00
2022-08-08T18:08:25.060Z,1.00
2022-08-08T18:11:03.555Z,1.00
2022-08-08T18:13:34.981Z,1.00
2022-08-08T18:16:09.054Z,1.00
2022-08-08T18:18:42.434Z,1.00
2022-08-08T18:21:24.921Z,1.00
2022-08-08T18:23:58.620Z,1.00
2022-08-08T18:26:28.988Z,1.00
2022-08-08T18:28:56.434Z,1.00
2022-08-08T18:31:24.695Z,1.00
2022-08-08T18:34:11.845Z,1.00
2022-08-08T18:36:41.267Z,1.00
2022-08-08T18:39:16.492Z,1.00
2022-08-08T18:41:58.356Z,1.00
2022-08-08T18:44:32.764Z,1.00
2022-08-08T18:47:00.519Z,1.00
2022-08-08T18:49:32.105Z,1.00
2022-08-08T18:52:07.574Z,1.00
2022-08-08T18:54:34.713Z,1.00
2022-08-08T18:57:03.897Z,1.00
2022-08-08T18:59:34.517Z,1.00
2022-08-08T19:02:25.389Z,1.00
2022-08-08T19:04:51.961Z,1.00
2022-08-08T19:07:23.208Z,1.00
2022-08-08T19:10:14.471Z,1.00
2022-08-08T19:12:39.590Z,1.00
2022-08-08T19:15:12.221Z,1.00
2022-08-08T19:18:31.274Z,1.00
2022-08-08T19:20:29.644Z,1.00
2022-08-08T19:22:58.904Z,1.00
2022-08-08T19:26:20.288Z,1.00
2022-08-08T19:28:18.200Z,1.00
2022-08-08T19:30:51.427Z,1.00
2022-08-08T19:33:52.224Z,1.00
2022-08-08T19:36:27.701Z,1.00
2022-08-08T19:38:56.471Z,1.00
2022-08-08T19:41:33.651Z,1.00
2022-08-08T19:44:04.063Z,1.00
2022-08-08T19:46:39.765Z,1.00
2022-08-08T19:49:07.265Z,1.00
2022-08-08T19:51:39.518Z,1.00
2022-08-08T19:54:11.062Z,1.00
2022-08-08T19:56:40.022Z,1.00
2022-08-08T19:59:11.813Z,1.00
2022-08-08T20:02:01.232Z,1.00
2022-08-08T20:04:28.007Z,1.00
2022-08-08T20:06:56.881Z,1.00
2022-08-08T20:09:24.820Z,1.00
2022-08-08T20:11:52.750Z,1.00
2022-08-08T20:14:34.232Z,1.00
2022-08-08T20:17:04.146Z,1.00
2022-08-08T20:19:34.384Z,1.00
2022-08-08T20:22:20.607Z,1.00
2022-08-08T20:24:48.488Z,1.00
2022-08-08T20:27:20.480Z,1.00
2022-08-08T20:30:00.525Z,1.00
2022-08-08T20:32:29.554Z,1.00
2022-08-08T20:35:01.238Z,1.00
2022-08-08T20:37:46.879Z,1.00
2022-08-08T20:40:17.172Z,1.00
2022-08-08T20:42:55.034Z,1.00
2022-08-08T20:45:55.057Z,1.00
2022-08-08T20:48:09.574Z,1.00
2022-08-08T20:50:36.758Z,1.00
2022-08-08T20:53:16.167Z,1.00
2022-08-08T20:55:45.300Z,1.00
2022-08-08T20:58:22.982Z,1.00
2022-08-08T21:00:50.470Z,1.00
2022-08-08T21:08:36.672Z,1.00
2022-08-08T21:11:51.485Z,1.00
2022-08-08T21:17:33.275Z,1.00
2022-08-08T21:20:07.758Z,1.00
2022-08-08T21:22:40.635Z,1.00
2022-08-08T21:25:13.500Z,1.00
2022-08-08T21:28:15.060Z,1.00
2022-08-08T21:31:22.641Z,1.00
2022-08-08T21:34:35.180Z,1.00
2022-08-08T21:41:06.676Z,1.00
2022-08-08T21:43:35.068Z,1.00
2022-08-08T21:48:04.260Z,1.00
2022-08-08T21:48:55.417Z,1.00
2022-08-08T21:54:17.654Z,1.00
2022-08-08T21:54:37.352Z,1.00
2022-08-08T21:57:08.137Z,1.00
2022-08-08T22:00:01.904Z,1.00
2022-08-08T22:02:24.183Z,1.00
2022-08-08T22:04:55.743Z,1.00
2022-08-08T22:07:34.789Z,1.00
2022-08-08T22:10:32.253Z,1.00
2022-08-08T22:13:17.580Z,1.00
2022-08-08T22:15:59.301Z,1.00
2022-08-08T22:18:29.830Z,1.00
2022-08-08T22:20:59.413Z,1.00
2022-08-08T22:23:29.854Z,1.00
2022-08-08T22:26:26.835Z,1.00
2022-08-08T22:29:04.745Z,1.00
2022-08-08T22:31:35.272Z,1.00
2022-08-08T22:34:13.452Z,1.00
2022-08-08T22:36:42.872Z,1.00
2022-08-08T22:39:18.863Z,1.00
2022-08-08T22:41:46.363Z,1.00
2022-08-08T22:44:16.258Z,1.00
2022-08-08T22:46:42.979Z,1.00
2022-08-08T22:49:12.627Z,1.00
2022-08-08T22:51:46.881Z,1.00
2022-08-08T22:54:30.000Z,1.00
2022-08-08T22:57:01.217Z,1.00
2022-08-08T22:59:35.862Z,1.00
2022-08-08T23:02:14.696Z,1.00
2022-08-08T23:05:02.235Z,1.00
2022-08-08T23:07:51.446Z,1.00
2022-08-08T23:10:25.347Z,1.00
2022-08-08T23:12:54.115Z,1.00
2022-08-08T23:16:37.933Z,1.00
2022-08-08T23:18:12.107Z,1.00
2022-08-08T23:20:40.249Z,1.00
2022-08-08T23:23:07.319Z,1.00
2022-08-08T23:25:45.130Z,1.00
2022-08-08T23:28:15.792Z,1.00
2022-08-08T23:30:45.079Z,1.00
2022-08-08T23:33:18.872Z,1.00
2022-08-08T23:36:06.779Z,1.00
2022-08-08T23:38:33.199Z,1.00
2022-08-08T23:40:59.903Z,1.00
2022-08-08T23:43:31.520Z,1.00
2022-08-08T23:49:02.736Z,1.00
2022-08-08T23:49:18.280Z,1.00
2022-08-08T23:52:06.260Z,1.00
2022-08-08T23:54:41.471Z,1.00
2022-08-08T23:57:26.302Z,1.00
